sensor_id;sensor_type;location;lat;lon;timestamp;P1;durP1;ratioP1;P2;durP2;ratioP2
36653;SDS011;22650;49.350;20.898;2023-04-01T00:01:56;23.27;;;10.23;;
36653;SDS011;22650;49.350;20.898;2023-04-01T00:04:29;15.90;;;8.98;;
36653;SDS011;22650;49.350;20.898;2023-04-01T00:07:03;22.00;;;9.70;;
36653;SDS011;22650;49.350;20.898;2023-04-01T00:09:38;22.48;;;9.02;;
36653;SDS011;22650;49.350;20.898;2023-04-01T00:12:11;16.95;;;8.93;;
36653;SDS011;22650;49.350;20.898;2023-04-01T00:14:45;13.70;;;7.97;;
36653;SDS011;22650;49.350;20.898;2023-04-01T00:17:20;12.93;;;7.55;;
36653;SDS011;22650;49.350;20.898;2023-04-01T00:19:54;18.15;;;8.80;;
36653;SDS011;22650;49.350;20.898;2023-04-01T00:22:28;17.67;;;8.85;;
36653;SDS011;22650;49.350;20.898;2023-04-01T00:25:02;17.02;;;9.63;;
36653;SDS011;22650;49.350;20.898;2023-04-01T00:27:35;17.23;;;8.75;;
36653;SDS011;22650;49.350;20.898;2023-04-01T00:30:09;19.90;;;9.23;;
36653;SDS011;22650;49.350;20.898;2023-04-01T00:32:44;16.73;;;7.97;;
36653;SDS011;22650;49.350;20.898;2023-04-01T00:35:18;15.55;;;8.75;;
36653;SDS011;22650;49.350;20.898;2023-04-01T00:37:52;16.88;;;8.32;;
36653;SDS011;22650;49.350;20.898;2023-04-01T00:40:27;16.75;;;8.52;;
36653;SDS011;22650;49.350;20.898;2023-04-01T00:43:02;14.85;;;8.40;;
36653;SDS011;22650;49.350;20.898;2023-04-01T00:45:37;23.40;;;9.38;;
36653;SDS011;22650;49.350;20.898;2023-04-01T00:48:14;20.85;;;9.07;;
36653;SDS011;22650;49.350;20.898;2023-04-01T00:50:50;17.25;;;9.57;;
36653;SDS011;22650;49.350;20.898;2023-04-01T00:53:27;19.13;;;9.15;;
36653;SDS011;22650;49.350;20.898;2023-04-01T00:56:04;13.88;;;9.20;;
36653;SDS011;22650;49.350;20.898;2023-04-01T00:58:43;16.77;;;9.25;;
36653;SDS011;22650;49.350;20.898;2023-04-01T01:01:21;10.82;;;6.93;;
36653;SDS011;22650;49.350;20.898;2023-04-01T01:03:58;19.67;;;9.65;;
36653;SDS011;22650;49.350;20.898;2023-04-01T01:06:37;23.00;;;10.73;;
36653;SDS011;22650;49.350;20.898;2023-04-01T01:11:59;18.30;;;9.23;;
36653;SDS011;22650;49.350;20.898;2023-04-01T01:14:42;16.00;;;8.77;;
36653;SDS011;22650;49.350;20.898;2023-04-01T01:17:31;16.08;;;7.68;;
36653;SDS011;22650;49.350;20.898;2023-04-01T01:20:19;13.55;;;7.97;;
36653;SDS011;22650;49.350;20.898;2023-04-01T01:26:23;13.38;;;6.55;;
36653;SDS011;22650;49.350;20.898;2023-04-01T01:29:29;14.85;;;9.18;;
36653;SDS011;22650;49.350;20.898;2023-04-01T01:32:17;18.88;;;8.77;;
36653;SDS011;22650;49.350;20.898;2023-04-01T01:35:08;11.93;;;7.43;;
36653;SDS011;22650;49.350;20.898;2023-04-01T01:37:50;14.15;;;8.30;;
36653;SDS011;22650;49.350;20.898;2023-04-01T01:40:27;12.43;;;7.70;;
36653;SDS011;22650;49.350;20.898;2023-04-01T01:43:04;15.50;;;7.53;;
36653;SDS011;22650;49.350;20.898;2023-04-01T01:45:42;11.95;;;7.65;;
36653;SDS011;22650;49.350;20.898;2023-04-01T01:48:19;18.63;;;6.72;;
36653;SDS011;22650;49.350;20.898;2023-04-01T01:50:54;15.32;;;7.50;;
36653;SDS011;22650;49.350;20.898;2023-04-01T01:53:28;15.95;;;8.25;;
36653;SDS011;22650;49.350;20.898;2023-04-01T01:56:03;20.55;;;8.38;;
36653;SDS011;22650;49.350;20.898;2023-04-01T01:58:42;16.13;;;7.70;;
36653;SDS011;22650;49.350;20.898;2023-04-01T02:01:20;15.95;;;7.32;;
36653;SDS011;22650;49.350;20.898;2023-04-01T02:03:59;11.88;;;6.10;;
36653;SDS011;22650;49.350;20.898;2023-04-01T02:06:34;13.85;;;8.45;;
36653;SDS011;22650;49.350;20.898;2023-04-01T02:09:12;13.40;;;7.35;;
36653;SDS011;22650;49.350;20.898;2023-04-01T02:11:47;16.23;;;8.65;;
36653;SDS011;22650;49.350;20.898;2023-04-01T02:14:24;16.60;;;8.55;;
36653;SDS011;22650;49.350;20.898;2023-04-01T02:17:02;14.45;;;7.82;;
36653;SDS011;22650;49.350;20.898;2023-04-01T02:19:39;12.77;;;7.55;;
36653;SDS011;22650;49.350;20.898;2023-04-01T02:22:18;14.93;;;6.25;;
36653;SDS011;22650;49.350;20.898;2023-04-01T02:24:54;10.88;;;6.35;;
36653;SDS011;22650;49.350;20.898;2023-04-01T02:27:31;11.98;;;6.50;;
36653;SDS011;22650;49.350;20.898;2023-04-01T02:30:06;13.40;;;7.05;;
36653;SDS011;22650;49.350;20.898;2023-04-01T02:32:41;13.15;;;5.80;;
36653;SDS011;22650;49.350;20.898;2023-04-01T02:35:15;9.77;;;6.15;;
36653;SDS011;22650;49.350;20.898;2023-04-01T02:37:51;9.50;;;5.60;;
36653;SDS011;22650;49.350;20.898;2023-04-01T02:40:26;7.50;;;4.85;;
36653;SDS011;22650;49.350;20.898;2023-04-01T02:43:00;14.63;;;7.03;;
36653;SDS011;22650;49.350;20.898;2023-04-01T02:45:33;10.77;;;6.15;;
36653;SDS011;22650;49.350;20.898;2023-04-01T02:48:07;11.57;;;6.35;;
36653;SDS011;22650;49.350;20.898;2023-04-01T02:50:40;8.52;;;5.00;;
36653;SDS011;22650;49.350;20.898;2023-04-01T02:53:15;8.40;;;4.82;;
36653;SDS011;22650;49.350;20.898;2023-04-01T02:55:49;9.80;;;4.72;;
36653;SDS011;22650;49.350;20.898;2023-04-01T02:58:23;10.48;;;5.03;;
36653;SDS011;22650;49.350;20.898;2023-04-01T03:00:57;14.52;;;5.57;;
36653;SDS011;22650;49.350;20.898;2023-04-01T03:03:31;9.20;;;5.50;;
36653;SDS011;22650;49.350;20.898;2023-04-01T03:06:05;8.93;;;5.40;;
36653;SDS011;22650;49.350;20.898;2023-04-01T03:08:40;9.90;;;4.47;;
36653;SDS011;22650;49.350;20.898;2023-04-01T03:11:14;6.55;;;3.95;;
36653;SDS011;22650;49.350;20.898;2023-04-01T03:13:47;7.30;;;3.97;;
36653;SDS011;22650;49.350;20.898;2023-04-01T03:16:21;9.02;;;5.10;;
36653;SDS011;22650;49.350;20.898;2023-04-01T03:18:55;11.70;;;5.57;;
36653;SDS011;22650;49.350;20.898;2023-04-01T03:21:31;11.68;;;6.20;;
36653;SDS011;22650;49.350;20.898;2023-04-01T03:24:06;11.38;;;5.65;;
36653;SDS011;22650;49.350;20.898;2023-04-01T03:26:40;12.93;;;6.15;;
36653;SDS011;22650;49.350;20.898;2023-04-01T03:29:14;13.15;;;4.57;;
36653;SDS011;22650;49.350;20.898;2023-04-01T03:31:48;10.38;;;3.50;;
36653;SDS011;22650;49.350;20.898;2023-04-01T03:34:21;6.15;;;3.95;;
36653;SDS011;22650;49.350;20.898;2023-04-01T03:36:55;9.77;;;4.78;;
36653;SDS011;22650;49.350;20.898;2023-04-01T03:39:30;7.10;;;4.22;;
36653;SDS011;22650;49.350;20.898;2023-04-01T03:42:04;11.93;;;5.75;;
36653;SDS011;22650;49.350;20.898;2023-04-01T03:44:38;7.40;;;4.05;;
36653;SDS011;22650;49.350;20.898;2023-04-01T03:47:14;9.38;;;5.47;;
36653;SDS011;22650;49.350;20.898;2023-04-01T03:49:47;13.45;;;5.13;;
36653;SDS011;22650;49.350;20.898;2023-04-01T03:52:21;16.33;;;7.68;;
36653;SDS011;22650;49.350;20.898;2023-04-01T03:54:56;11.82;;;6.78;;
36653;SDS011;22650;49.350;20.898;2023-04-01T03:57:30;12.52;;;5.85;;
36653;SDS011;22650;49.350;20.898;2023-04-01T04:02:49;12.90;;;6.10;;
36653;SDS011;22650;49.350;20.898;2023-04-01T04:05:28;12.57;;;6.45;;
36653;SDS011;22650;49.350;20.898;2023-04-01T04:08:03;11.13;;;5.32;;
36653;SDS011;22650;49.350;20.898;2023-04-01T04:10:39;11.07;;;5.25;;
36653;SDS011;22650;49.350;20.898;2023-04-01T04:13:12;7.72;;;4.38;;
36653;SDS011;22650;49.350;20.898;2023-04-01T04:15:53;9.18;;;4.88;;
36653;SDS011;22650;49.350;20.898;2023-04-01T04:18:27;11.32;;;5.82;;
36653;SDS011;22650;49.350;20.898;2023-04-01T04:21:00;9.48;;;4.95;;
36653;SDS011;22650;49.350;20.898;2023-04-01T04:23:35;9.45;;;4.70;;
36653;SDS011;22650;49.350;20.898;2023-04-01T04:26:10;9.48;;;4.20;;
36653;SDS011;22650;49.350;20.898;2023-04-01T04:28:46;11.50;;;4.88;;
36653;SDS011;22650;49.350;20.898;2023-04-01T04:31:22;9.13;;;5.22;;
36653;SDS011;22650;49.350;20.898;2023-04-01T04:33:59;10.65;;;5.85;;
36653;SDS011;22650;49.350;20.898;2023-04-01T04:36:37;9.55;;;5.28;;
36653;SDS011;22650;49.350;20.898;2023-04-01T04:39:11;18.88;;;8.52;;
36653;SDS011;22650;49.350;20.898;2023-04-01T04:41:47;16.10;;;7.70;;
36653;SDS011;22650;49.350;20.898;2023-04-01T04:44:21;12.25;;;7.40;;
36653;SDS011;22650;49.350;20.898;2023-04-01T04:46:54;11.38;;;6.30;;
36653;SDS011;22650;49.350;20.898;2023-04-01T04:49:29;16.75;;;8.63;;
36653;SDS011;22650;49.350;20.898;2023-04-01T04:52:06;13.38;;;7.18;;
36653;SDS011;22650;49.350;20.898;2023-04-01T04:54:39;21.70;;;9.15;;
36653;SDS011;22650;49.350;20.898;2023-04-01T04:57:14;14.27;;;7.60;;
36653;SDS011;22650;49.350;20.898;2023-04-01T04:59:55;16.02;;;6.60;;
36653;SDS011;22650;49.350;20.898;2023-04-01T05:02:42;15.60;;;6.65;;
36653;SDS011;22650;49.350;20.898;2023-04-01T05:05:15;19.25;;;8.27;;
36653;SDS011;22650;49.350;20.898;2023-04-01T05:07:50;14.35;;;8.27;;
36653;SDS011;22650;49.350;20.898;2023-04-01T05:10:24;17.13;;;8.20;;
36653;SDS011;22650;49.350;20.898;2023-04-01T05:12:59;16.92;;;7.75;;
36653;SDS011;22650;49.350;20.898;2023-04-01T05:15:32;19.33;;;9.32;;
36653;SDS011;22650;49.350;20.898;2023-04-01T05:18:06;17.75;;;8.77;;
36653;SDS011;22650;49.350;20.898;2023-04-01T05:20:45;22.73;;;10.57;;
36653;SDS011;22650;49.350;20.898;2023-04-01T05:23:20;21.95;;;8.73;;
36653;SDS011;22650;49.350;20.898;2023-04-01T05:25:55;19.98;;;9.32;;
36653;SDS011;22650;49.350;20.898;2023-04-01T05:28:30;23.70;;;10.40;;
36653;SDS011;22650;49.350;20.898;2023-04-01T05:31:03;18.10;;;9.77;;
36653;SDS011;22650;49.350;20.898;2023-04-01T05:33:41;18.75;;;8.93;;
36653;SDS011;22650;49.350;20.898;2023-04-01T05:36:15;22.27;;;10.68;;
36653;SDS011;22650;49.350;20.898;2023-04-01T05:38:49;21.60;;;8.90;;
36653;SDS011;22650;49.350;20.898;2023-04-01T05:41:24;21.55;;;10.10;;
36653;SDS011;22650;49.350;20.898;2023-04-01T05:43:58;21.25;;;8.90;;
36653;SDS011;22650;49.350;20.898;2023-04-01T05:46:44;20.77;;;7.85;;
36653;SDS011;22650;49.350;20.898;2023-04-01T05:49:29;16.13;;;6.95;;
36653;SDS011;22650;49.350;20.898;2023-04-01T05:52:03;15.50;;;8.25;;
36653;SDS011;22650;49.350;20.898;2023-04-01T05:54:39;19.08;;;9.23;;
36653;SDS011;22650;49.350;20.898;2023-04-01T05:57:13;19.60;;;9.13;;
36653;SDS011;22650;49.350;20.898;2023-04-01T05:59:48;21.40;;;7.68;;
36653;SDS011;22650;49.350;20.898;2023-04-01T06:02:22;14.70;;;8.32;;
36653;SDS011;22650;49.350;20.898;2023-04-01T06:05:00;11.93;;;5.97;;
36653;SDS011;22650;49.350;20.898;2023-04-01T06:07:44;24.10;;;6.25;;
36653;SDS011;22650;49.350;20.898;2023-04-01T06:10:18;11.73;;;6.78;;
36653;SDS011;22650;49.350;20.898;2023-04-01T06:12:57;19.42;;;8.60;;
36653;SDS011;22650;49.350;20.898;2023-04-01T06:15:38;23.90;;;9.45;;
36653;SDS011;22650;49.350;20.898;2023-04-01T06:18:37;20.52;;;9.63;;
36653;SDS011;22650;49.350;20.898;2023-04-01T06:21:32;18.98;;;8.23;;
36653;SDS011;22650;49.350;20.898;2023-04-01T06:24:27;21.05;;;8.45;;
36653;SDS011;22650;49.350;20.898;2023-04-01T06:27:15;15.52;;;8.77;;
36653;SDS011;22650;49.350;20.898;2023-04-01T06:29:58;13.82;;;7.47;;
36653;SDS011;22650;49.350;20.898;2023-04-01T06:32:54;16.95;;;8.27;;
36653;SDS011;22650;49.350;20.898;2023-04-01T06:35:50;19.27;;;9.13;;
36653;SDS011;22650;49.350;20.898;2023-04-01T06:38:48;19.95;;;9.82;;
36653;SDS011;22650;49.350;20.898;2023-04-01T06:45:15;19.83;;;9.63;;
36653;SDS011;22650;49.350;20.898;2023-04-01T06:48:27;17.98;;;9.50;;
36653;SDS011;22650;49.350;20.898;2023-04-01T06:51:41;17.77;;;9.43;;
36653;SDS011;22650;49.350;20.898;2023-04-01T06:54:40;15.82;;;8.45;;
36653;SDS011;22650;49.350;20.898;2023-04-01T06:57:38;13.80;;;8.75;;
36653;SDS011;22650;49.350;20.898;2023-04-01T07:00:16;20.85;;;9.00;;
36653;SDS011;22650;49.350;20.898;2023-04-01T07:02:59;13.38;;;7.63;;
36653;SDS011;22650;49.350;20.898;2023-04-01T07:05:39;18.95;;;8.82;;
36653;SDS011;22650;49.350;20.898;2023-04-01T07:08:17;34.22;;;15.05;;
36653;SDS011;22650;49.350;20.898;2023-04-01T07:10:55;49.35;;;22.45;;
36653;SDS011;22650;49.350;20.898;2023-04-01T07:13:52;47.17;;;19.02;;
36653;SDS011;22650;49.350;20.898;2023-04-01T07:16:29;5.75;;;2.85;;
36653;SDS011;22650;49.350;20.898;2023-04-01T07:19:06;2.65;;;1.00;;
36653;SDS011;22650;49.350;20.898;2023-04-01T07:22:05;4.70;;;2.15;;
36653;SDS011;22650;49.350;20.898;2023-04-01T07:25:22;3.33;;;1.60;;
36653;SDS011;22650;49.350;20.898;2023-04-01T07:28:19;2.85;;;1.30;;
36653;SDS011;22650;49.350;20.898;2023-04-01T07:31:06;2.15;;;1.58;;
36653;SDS011;22650;49.350;20.898;2023-04-01T07:33:50;2.15;;;1.35;;
36653;SDS011;22650;49.350;20.898;2023-04-01T07:36:31;2.95;;;1.40;;
36653;SDS011;22650;49.350;20.898;2023-04-01T07:39:15;2.97;;;1.55;;
36653;SDS011;22650;49.350;20.898;2023-04-01T07:42:22;2.05;;;1.13;;
36653;SDS011;22650;49.350;20.898;2023-04-01T07:45:05;3.15;;;1.23;;
36653;SDS011;22650;49.350;20.898;2023-04-01T07:47:50;2.15;;;1.13;;
36653;SDS011;22650;49.350;20.898;2023-04-01T07:50:35;1.02;;;0.38;;
36653;SDS011;22650;49.350;20.898;2023-04-01T07:53:16;4.80;;;0.50;;
36653;SDS011;22650;49.350;20.898;2023-04-01T07:55:59;1.65;;;0.90;;
36653;SDS011;22650;49.350;20.898;2023-04-01T07:58:48;2.22;;;0.80;;
36653;SDS011;22650;49.350;20.898;2023-04-01T08:01:54;1.23;;;0.47;;
36653;SDS011;22650;49.350;20.898;2023-04-01T08:04:40;2.88;;;1.27;;
36653;SDS011;22650;49.350;20.898;2023-04-01T08:07:25;6.75;;;2.10;;
36653;SDS011;22650;49.350;20.898;2023-04-01T08:10:18;2.70;;;0.90;;
36653;SDS011;22650;49.350;20.898;2023-04-01T08:13:17;3.25;;;1.35;;
36653;SDS011;22650;49.350;20.898;2023-04-01T08:16:26;1.17;;;0.35;;
36653;SDS011;22650;49.350;20.898;2023-04-01T08:19:09;0.93;;;0.43;;
36653;SDS011;22650;49.350;20.898;2023-04-01T08:21:57;3.60;;;1.00;;
36653;SDS011;22650;49.350;20.898;2023-04-01T08:24:37;3.13;;;0.43;;
36653;SDS011;22650;49.350;20.898;2023-04-01T08:27:24;0.70;;;0.40;;
36653;SDS011;22650;49.350;20.898;2023-04-01T08:30:15;1.35;;;0.55;;
36653;SDS011;22650;49.350;20.898;2023-04-01T08:32:51;1.08;;;0.77;;
36653;SDS011;22650;49.350;20.898;2023-04-01T08:35:31;1.75;;;0.77;;
36653;SDS011;22650;49.350;20.898;2023-04-01T08:38:11;2.95;;;0.82;;
36653;SDS011;22650;49.350;20.898;2023-04-01T08:44:27;0.30;;;0.30;;
36653;SDS011;22650;49.350;20.898;2023-04-01T08:47:22;1.65;;;0.32;;
36653;SDS011;22650;49.350;20.898;2023-04-01T08:50:17;4.07;;;0.63;;
36653;SDS011;22650;49.350;20.898;2023-04-01T08:53:10;0.30;;;0.28;;
36653;SDS011;22650;49.350;20.898;2023-04-01T08:55:56;3.42;;;0.20;;
36653;SDS011;22650;49.350;20.898;2023-04-01T09:01:46;2.10;;;1.13;;
36653;SDS011;22650;49.350;20.898;2023-04-01T09:04:57;2.15;;;0.47;;
36653;SDS011;22650;49.350;20.898;2023-04-01T09:07:53;2.03;;;0.30;;
36653;SDS011;22650;49.350;20.898;2023-04-01T09:10:42;1.02;;;0.40;;
36653;SDS011;22650;49.350;20.898;2023-04-01T09:14:02;0.25;;;0.25;;
36653;SDS011;22650;49.350;20.898;2023-04-01T09:17:26;2.80;;;0.40;;
36653;SDS011;22650;49.350;20.898;2023-04-01T09:20:25;1.63;;;0.60;;
36653;SDS011;22650;49.350;20.898;2023-04-01T09:23:29;1.75;;;0.47;;
36653;SDS011;22650;49.350;20.898;2023-04-01T09:26:28;0.63;;;0.32;;
36653;SDS011;22650;49.350;20.898;2023-04-01T09:29:27;2.10;;;0.40;;
36653;SDS011;22650;49.350;20.898;2023-04-01T09:32:24;1.67;;;0.50;;
36653;SDS011;22650;49.350;20.898;2023-04-01T09:35:25;4.45;;;0.73;;
36653;SDS011;22650;49.350;20.898;2023-04-01T09:38:17;0.75;;;0.40;;
36653;SDS011;22650;49.350;20.898;2023-04-01T09:40:56;0.30;;;0.10;;
36653;SDS011;22650;49.350;20.898;2023-04-01T09:43:44;1.55;;;0.38;;
36653;SDS011;22650;49.350;20.898;2023-04-01T09:46:52;0.93;;;0.30;;
36653;SDS011;22650;49.350;20.898;2023-04-01T09:52:32;9.05;;;0.60;;
36653;SDS011;22650;49.350;20.898;2023-04-01T10:11:55;1.33;;;0.80;;
36653;SDS011;22650;49.350;20.898;2023-04-01T10:23:53;2.30;;;0.50;;
36653;SDS011;22650;49.350;20.898;2023-04-01T10:26:49;0.98;;;0.50;;
36653;SDS011;22650;49.350;20.898;2023-04-01T10:36:43;0.43;;;0.20;;
36653;SDS011;22650;49.350;20.898;2023-04-01T10:39:49;2.72;;;0.20;;
36653;SDS011;22650;49.350;20.898;2023-04-01T10:43:13;0.22;;;0.20;;
36653;SDS011;22650;49.350;20.898;2023-04-01T10:46:34;0.73;;;0.32;;
36653;SDS011;22650;49.350;20.898;2023-04-01T10:49:43;2.97;;;0.60;;
36653;SDS011;22650;49.350;20.898;2023-04-01T10:52:59;1.67;;;0.98;;
36653;SDS011;22650;49.350;20.898;2023-04-01T10:59:46;0.40;;;0.40;;
36653;SDS011;22650;49.350;20.898;2023-04-01T11:06:43;1.15;;;0.65;;
36653;SDS011;22650;49.350;20.898;2023-04-01T11:13:29;2.92;;;0.25;;
36653;SDS011;22650;49.350;20.898;2023-04-01T11:16:34;1.20;;;0.30;;
36653;SDS011;22650;49.350;20.898;2023-04-01T11:19:38;0.75;;;0.32;;
36653;SDS011;22650;49.350;20.898;2023-04-01T11:25:54;0.68;;;0.20;;
36653;SDS011;22650;49.350;20.898;2023-04-01T11:29:33;2.47;;;0.43;;
36653;SDS011;22650;49.350;20.898;2023-04-01T11:32:38;1.10;;;0.52;;
36653;SDS011;22650;49.350;20.898;2023-04-01T11:35:26;2.83;;;0.52;;
36653;SDS011;22650;49.350;20.898;2023-04-01T11:38:23;1.60;;;0.60;;
36653;SDS011;22650;49.350;20.898;2023-04-01T11:41:32;0.77;;;0.40;;
36653;SDS011;22650;49.350;20.898;2023-04-01T11:44:51;3.33;;;0.43;;
36653;SDS011;22650;49.350;20.898;2023-04-01T11:50:45;2.35;;;1.00;;
36653;SDS011;22650;49.350;20.898;2023-04-01T11:53:38;2.30;;;0.85;;
36653;SDS011;22650;49.350;20.898;2023-04-01T11:56:24;2.47;;;0.93;;
36653;SDS011;22650;49.350;20.898;2023-04-01T12:02:10;1.00;;;0.50;;
36653;SDS011;22650;49.350;20.898;2023-04-01T12:04:58;1.23;;;0.60;;
36653;SDS011;22650;49.350;20.898;2023-04-01T12:08:01;1.38;;;0.63;;
36653;SDS011;22650;49.350;20.898;2023-04-01T12:10:41;2.65;;;0.45;;
36653;SDS011;22650;49.350;20.898;2023-04-01T12:13:24;4.20;;;0.47;;
36653;SDS011;22650;49.350;20.898;2023-04-01T12:16:11;1.02;;;0.45;;
36653;SDS011;22650;49.350;20.898;2023-04-01T12:18:55;0.35;;;0.30;;
36653;SDS011;22650;49.350;20.898;2023-04-01T12:21:32;1.73;;;0.45;;
36653;SDS011;22650;49.350;20.898;2023-04-01T12:27:34;14.32;;;1.88;;
36653;SDS011;22650;49.350;20.898;2023-04-01T12:30:23;0.65;;;0.65;;
36653;SDS011;22650;49.350;20.898;2023-04-01T12:36:34;2.20;;;0.43;;
36653;SDS011;22650;49.350;20.898;2023-04-01T12:42:41;4.22;;;0.38;;
36653;SDS011;22650;49.350;20.898;2023-04-01T12:45:28;1.48;;;0.77;;
36653;SDS011;22650;49.350;20.898;2023-04-01T12:48:09;5.20;;;0.85;;
36653;SDS011;22650;49.350;20.898;2023-04-01T12:54:23;4.43;;;1.70;;
36653;SDS011;22650;49.350;20.898;2023-04-01T12:57:21;2.55;;;0.90;;
36653;SDS011;22650;49.350;20.898;2023-04-01T13:00:11;2.10;;;1.40;;
36653;SDS011;22650;49.350;20.898;2023-04-01T13:03:01;4.13;;;1.75;;
36653;SDS011;22650;49.350;20.898;2023-04-01T13:08:57;3.47;;;2.10;;
36653;SDS011;22650;49.350;20.898;2023-04-01T13:11:40;2.60;;;1.02;;
36653;SDS011;22650;49.350;20.898;2023-04-01T13:17:20;1.67;;;0.75;;
36653;SDS011;22650;49.350;20.898;2023-04-01T13:20:02;2.35;;;1.25;;
36653;SDS011;22650;49.350;20.898;2023-04-01T13:22:50;0.82;;;0.40;;
36653;SDS011;22650;49.350;20.898;2023-04-01T13:25:35;1.52;;;0.70;;
36653;SDS011;22650;49.350;20.898;2023-04-01T13:28:14;2.28;;;0.77;;
36653;SDS011;22650;49.350;20.898;2023-04-01T13:30:55;1.10;;;0.80;;
36653;SDS011;22650;49.350;20.898;2023-04-01T13:33:36;6.72;;;1.48;;
36653;SDS011;22650;49.350;20.898;2023-04-01T13:36:17;3.17;;;1.77;;
36653;SDS011;22650;49.350;20.898;2023-04-01T13:39:00;7.53;;;3.38;;
36653;SDS011;22650;49.350;20.898;2023-04-01T13:41:54;5.65;;;1.65;;
36653;SDS011;22650;49.350;20.898;2023-04-01T13:44:41;3.70;;;2.00;;
36653;SDS011;22650;49.350;20.898;2023-04-01T13:47:33;1.08;;;0.60;;
36653;SDS011;22650;49.350;20.898;2023-04-01T13:50:34;0.75;;;0.70;;
36653;SDS011;22650;49.350;20.898;2023-04-01T13:53:30;2.80;;;1.20;;
36653;SDS011;22650;49.350;20.898;2023-04-01T13:56:34;0.57;;;0.50;;
36653;SDS011;22650;49.350;20.898;2023-04-01T13:59:17;1.13;;;0.70;;
36653;SDS011;22650;49.350;20.898;2023-04-01T14:02:17;1.30;;;0.80;;
36653;SDS011;22650;49.350;20.898;2023-04-01T14:05:09;1.00;;;0.60;;
36653;SDS011;22650;49.350;20.898;2023-04-01T14:08:09;1.55;;;0.50;;
36653;SDS011;22650;49.350;20.898;2023-04-01T14:10:51;1.23;;;0.65;;
36653;SDS011;22650;49.350;20.898;2023-04-01T14:13:38;1.00;;;0.40;;
36653;SDS011;22650;49.350;20.898;2023-04-01T14:16:32;0.88;;;0.75;;
36653;SDS011;22650;49.350;20.898;2023-04-01T14:19:48;1.52;;;0.82;;
36653;SDS011;22650;49.350;20.898;2023-04-01T14:22:37;1.20;;;0.63;;
36653;SDS011;22650;49.350;20.898;2023-04-01T14:25:21;1.98;;;0.70;;
36653;SDS011;22650;49.350;20.898;2023-04-01T14:28:09;4.90;;;1.95;;
36653;SDS011;22650;49.350;20.898;2023-04-01T14:30:58;5.95;;;1.65;;
36653;SDS011;22650;49.350;20.898;2023-04-01T14:33:56;2.95;;;1.48;;
36653;SDS011;22650;49.350;20.898;2023-04-01T14:36:49;2.13;;;1.02;;
36653;SDS011;22650;49.350;20.898;2023-04-01T14:39:38;4.18;;;1.00;;
36653;SDS011;22650;49.350;20.898;2023-04-01T14:42:33;2.42;;;0.85;;
36653;SDS011;22650;49.350;20.898;2023-04-01T14:45:31;1.35;;;0.60;;
36653;SDS011;22650;49.350;20.898;2023-04-01T14:48:28;5.00;;;1.38;;
36653;SDS011;22650;49.350;20.898;2023-04-01T14:51:10;0.45;;;0.30;;
36653;SDS011;22650;49.350;20.898;2023-04-01T14:53:52;0.47;;;0.38;;
36653;SDS011;22650;49.350;20.898;2023-04-01T14:56:35;0.60;;;0.38;;
36653;SDS011;22650;49.350;20.898;2023-04-01T14:59:14;2.85;;;0.60;;
36653;SDS011;22650;49.350;20.898;2023-04-01T15:01:59;0.52;;;0.30;;
36653;SDS011;22650;49.350;20.898;2023-04-01T15:04:53;1.13;;;0.75;;
36653;SDS011;22650;49.350;20.898;2023-04-01T15:13:48;1.15;;;0.90;;
36653;SDS011;22650;49.350;20.898;2023-04-01T15:16:34;1.73;;;1.33;;
36653;SDS011;22650;49.350;20.898;2023-04-01T15:19:15;1.23;;;0.90;;
36653;SDS011;22650;49.350;20.898;2023-04-01T15:25:05;1.40;;;1.20;;
36653;SDS011;22650;49.350;20.898;2023-04-01T15:28:03;1.85;;;1.55;;
36653;SDS011;22650;49.350;20.898;2023-04-01T15:30:45;1.58;;;1.13;;
36653;SDS011;22650;49.350;20.898;2023-04-01T15:33:33;2.10;;;1.08;;
36653;SDS011;22650;49.350;20.898;2023-04-01T15:36:20;4.63;;;1.83;;
36653;SDS011;22650;49.350;20.898;2023-04-01T15:39:05;2.45;;;1.65;;
36653;SDS011;22650;49.350;20.898;2023-04-01T15:41:50;1.95;;;1.10;;
36653;SDS011;22650;49.350;20.898;2023-04-01T15:44:44;3.22;;;1.67;;
36653;SDS011;22650;49.350;20.898;2023-04-01T15:47:31;2.42;;;0.70;;
36653;SDS011;22650;49.350;20.898;2023-04-01T15:50:26;1.83;;;0.95;;
36653;SDS011;22650;49.350;20.898;2023-04-01T15:53:15;1.73;;;1.00;;
36653;SDS011;22650;49.350;20.898;2023-04-01T15:56:08;1.67;;;0.88;;
36653;SDS011;22650;49.350;20.898;2023-04-01T15:59:03;2.47;;;1.80;;
36653;SDS011;22650;49.350;20.898;2023-04-01T16:01:50;4.00;;;1.52;;
36653;SDS011;22650;49.350;20.898;2023-04-01T16:04:41;1.90;;;1.35;;
36653;SDS011;22650;49.350;20.898;2023-04-01T16:07:23;1.33;;;0.95;;
36653;SDS011;22650;49.350;20.898;2023-04-01T16:10:17;3.03;;;1.48;;
36653;SDS011;22650;49.350;20.898;2023-04-01T16:12:59;3.58;;;1.35;;
36653;SDS011;22650;49.350;20.898;2023-04-01T16:15:49;1.05;;;0.88;;
36653;SDS011;22650;49.350;20.898;2023-04-01T16:18:36;2.50;;;0.90;;
36653;SDS011;22650;49.350;20.898;2023-04-01T16:21:25;1.45;;;0.73;;
36653;SDS011;22650;49.350;20.898;2023-04-01T16:24:16;1.10;;;0.50;;
36653;SDS011;22650;49.350;20.898;2023-04-01T16:26:56;0.68;;;0.60;;
36653;SDS011;22650;49.350;20.898;2023-04-01T16:29:35;1.25;;;0.60;;
36653;SDS011;22650;49.350;20.898;2023-04-01T16:32:18;1.55;;;1.08;;
36653;SDS011;22650;49.350;20.898;2023-04-01T16:38:03;1.17;;;0.60;;
36653;SDS011;22650;49.350;20.898;2023-04-01T16:40:43;1.42;;;0.70;;
36653;SDS011;22650;49.350;20.898;2023-04-01T16:43:21;1.25;;;0.93;;
36653;SDS011;22650;49.350;20.898;2023-04-01T16:46:10;4.50;;;0.85;;
36653;SDS011;22650;49.350;20.898;2023-04-01T16:48:59;7.70;;;0.50;;
36653;SDS011;22650;49.350;20.898;2023-04-01T16:51:52;1.50;;;1.25;;
36653;SDS011;22650;49.350;20.898;2023-04-01T16:54:31;1.35;;;0.80;;
36653;SDS011;22650;49.350;20.898;2023-04-01T16:57:16;1.95;;;0.70;;
36653;SDS011;22650;49.350;20.898;2023-04-01T16:59:57;0.90;;;0.77;;
36653;SDS011;22650;49.350;20.898;2023-04-01T17:02:35;1.63;;;0.82;;
36653;SDS011;22650;49.350;20.898;2023-04-01T17:05:15;1.65;;;1.10;;
36653;SDS011;22650;49.350;20.898;2023-04-01T17:07:55;2.03;;;1.17;;
36653;SDS011;22650;49.350;20.898;2023-04-01T17:10:40;1.38;;;0.82;;
36653;SDS011;22650;49.350;20.898;2023-04-01T17:16:21;3.03;;;1.33;;
36653;SDS011;22650;49.350;20.898;2023-04-01T17:19:14;1.33;;;0.77;;
36653;SDS011;22650;49.350;20.898;2023-04-01T17:22:04;1.75;;;1.13;;
36653;SDS011;22650;49.350;20.898;2023-04-01T17:24:51;1.88;;;1.30;;
36653;SDS011;22650;49.350;20.898;2023-04-01T17:27:40;3.85;;;1.38;;
36653;SDS011;22650;49.350;20.898;2023-04-01T17:30:28;3.00;;;1.35;;
36653;SDS011;22650;49.350;20.898;2023-04-01T17:33:16;3.03;;;1.10;;
36653;SDS011;22650;49.350;20.898;2023-04-01T17:35:58;2.33;;;1.42;;
36653;SDS011;22650;49.350;20.898;2023-04-01T17:38:39;4.38;;;1.75;;
36653;SDS011;22650;49.350;20.898;2023-04-01T17:41:28;2.28;;;1.70;;
36653;SDS011;22650;49.350;20.898;2023-04-01T17:44:16;3.40;;;1.98;;
36653;SDS011;22650;49.350;20.898;2023-04-01T17:47:03;6.15;;;2.38;;
36653;SDS011;22650;49.350;20.898;2023-04-01T17:49:55;5.57;;;3.20;;
36653;SDS011;22650;49.350;20.898;2023-04-01T17:52:42;59.05;;;27.85;;
36653;SDS011;22650;49.350;20.898;2023-04-01T17:55:30;28.88;;;14.20;;
36653;SDS011;22650;49.350;20.898;2023-04-01T17:58:26;42.53;;;21.20;;
36653;SDS011;22650;49.350;20.898;2023-04-01T18:01:05;15.32;;;8.50;;
36653;SDS011;22650;49.350;20.898;2023-04-01T18:03:54;14.90;;;7.70;;